Time;durP1;ratioP1;P1;durP2;ratioP2;P2;SDS_P1;SDS_P2;PMS_P1;PMS_P2;Temp;Humidity;BMP_temperature;BMP_pressure;BME280_temperature;BME280_humidity;BME280_pressure;Samples;Min_cycle;Max_cycle;Signal;HPM_P1;HPM_P2
2022/09/25 00:00:50;;;;;;;16.55;14.85;;;15.60;45.50;;;;;;5036697;28;20178;-44
2022/09/25 00:03:17;;;;;;;17.48;13.57;;;15.50;45.50;;;;;;5036889;28;20177;-44
2022/09/25 00:05:45;;;;;;;14.80;13.30;;;15.50;45.50;;;;;;5036457;28;20198;-43
2022/09/25 00:08:11;;;;;;;15.73;12.88;;;15.40;45.60;;;;;;5036744;28;20220;-43
2022/09/25 00:10:42;;;;;;;15.05;13.30;;;15.40;45.60;;;;;;5036853;28;20182;-43
2022/09/25 00:13:08;;;;;;;14.98;13.48;;;15.40;45.60;;;;;;5037075;28;20182;-44
2022/09/25 00:15:34;;;;;;;14.38;12.85;;;15.40;45.70;;;;;;5036371;28;20205;-43
2022/09/25 00:18:00;;;;;;;16.33;14.63;;;15.30;45.70;;;;;;5037042;28;20154;-44
2022/09/25 00:20:26;;;;;;;16.03;13.20;;;15.30;45.80;;;;;;5036465;28;20181;-44
2022/09/25 00:22:53;;;;;;;17.13;13.13;;;15.30;45.90;;;;;;5035922;28;20412;-43
2022/09/25 00:25:19;;;;;;;16.10;14.40;;;15.30;46.00;;;;;;5035257;28;20904;-43
2022/09/25 00:27:47;;;;;;;15.02;13.60;;;15.30;46.20;;;;;;5035422;28;20188;-44
2022/09/25 00:30:13;;;;;;;15.95;13.55;;;15.30;46.50;;;;;;5035719;28;20561;-43
2022/09/25 00:32:39;;;;;;;16.80;14.15;;;15.30;46.70;;;;;;5036008;28;20177;-43
2022/09/25 00:35:06;;;;;;;14.27;12.75;;;15.30;46.80;;;;;;5035684;28;20665;-43
2022/09/25 00:37:33;;;;;;;13.88;12.48;;;15.30;46.80;;;;;;5035196;28;20336;-42
2022/09/25 00:39:59;;;;;;;12.27;11.13;;;15.40;46.80;;;;;;5036099;28;20173;-43
2022/09/25 00:42:25;;;;;;;17.20;13.27;;;15.40;46.80;;;;;;5036214;28;20170;-44
2022/09/25 00:44:56;;;;;;;20.30;13.88;;;15.30;46.80;;;;;;5036054;28;20255;-44
2022/09/25 00:47:45;;;;;;;17.60;13.05;;;15.30;46.70;;;;;;5035413;28;20545;-43
2022/09/25 00:50:40;;;;;;;18.45;14.15;;;15.40;46.50;;;;;;5029389;28;20510;-44
2022/09/25 00:53:23;;;;;;;17.58;13.80;;;15.30;46.40;;;;;;5035826;28;20198;-43
2022/09/25 00:55:50;;;;;;;18.55;14.63;;;15.30;46.30;;;;;;5035342;28;20606;-43
2022/09/25 00:58:21;;;;;;;14.38;12.85;;;15.30;46.40;;;;;;5035448;28;20256;-44
2022/09/25 01:00:47;;;;;;;19.15;12.70;;;15.30;46.50;;;;;;5035719;28;20166;-44
2022/09/25 01:03:14;;;;;;;13.87;12.47;;;15.30;46.80;;;;;;5036156;28;20162;-44
2022/09/25 01:05:43;;;;;;;15.15;13.60;;;15.30;46.90;;;;;;5035199;28;20428;-44
2022/09/25 01:08:17;;;;;;;16.95;13.75;;;15.30;47.00;;;;;;5035852;28;20193;-44
2022/09/25 01:10:43;;;;;;;15.90;14.20;;;15.30;47.80;;;;;;5035196;28;20663;-43
2022/09/25 01:13:10;;;;;;;16.00;14.10;;;15.30;47.10;;;;;;5035511;28;20182;-43
2022/09/25 01:15:36;;;;;;;17.70;14.98;;;15.40;47.20;;;;;;5034612;28;20209;-43
2022/09/25 01:18:23;;;;;;;17.60;15.03;;;15.40;47.30;;;;;;5035903;28;20163;-44
2022/09/25 01:21:11;;;;;;;14.23;12.73;;;15.40;47.30;;;;;;5035119;28;20476;-44
2022/09/25 01:23:55;;;;;;;15.32;13.27;;;15.40;47.30;;;;;;5035307;28;20165;-42
2022/09/25 01:26:43;;;;;;;14.43;13.13;;;15.40;47.30;;;;;;5034848;28;20198;-43
2022/09/25 01:29:24;;;;;;;21.88;13.23;;;15.40;47.30;;;;;;5035000;28;20649;-44
2022/09/25 01:32:03;;;;;;;16.60;12.40;;;15.40;47.40;;;;;;5035512;28;20638;-44
2022/09/25 01:34:47;;;;;;;15.05;13.55;;;15.40;47.60;;;;;;5034758;28;20235;-43
2022/09/25 01:37:16;;;;;;;14.93;12.00;;;15.40;47.50;;;;;;5034413;28;20292;-43
2022/09/25 01:39:51;;;;;;;14.10;12.60;;;15.40;47.70;;;;;;5034854;28;20170;-43
2022/09/25 01:42:33;;;;;;;17.98;13.30;;;15.50;47.80;;;;;;5035006;28;20252;-43
2022/09/25 01:45:06;;;;;;;21.48;15.27;;;15.50;47.90;;;;;;5035216;28;20499;-43
2022/09/25 01:47:38;;;;;;;14.95;12.55;;;15.50;47.80;;;;;;5034704;28;20561;-43
2022/09/25 01:50:32;;;;;;;15.55;13.98;;;15.60;47.90;;;;;;5035308;28;20177;-43
2022/09/25 01:53:03;;;;;;;15.27;12.93;;;15.60;47.80;;;;;;5034747;28;20534;-43
2022/09/25 01:55:38;;;;;;;17.85;15.00;;;15.60;47.90;;;;;;5034527;28;20190;-43
2022/09/25 01:58:38;;;;;;;14.98;13.57;;;15.60;47.80;;;;;;5035185;28;20154;-44
2022/09/25 02:01:09;;;;;;;17.63;15.43;;;15.60;47.80;;;;;;5034739;28;20161;-44
2022/09/25 02:03:46;;;;;;;16.75;13.43;;;15.60;48.00;;;;;;5034726;28;20265;-43
2022/09/25 02:06:16;;;;;;;14.13;12.70;;;15.60;47.80;;;;;;5034243;28;20209;-43
2022/09/25 02:08:54;;;;;;;15.15;13.75;;;15.60;47.80;;;;;;5034422;28;20185;-43
2022/09/25 02:11:22;;;;;;;14.25;12.80;;;15.70;47.90;;;;;;5034548;28;20162;-44
2022/09/25 02:14:19;;;;;;;13.95;12.45;;;15.70;47.90;;;;;;5038690;28;20252;-44
2022/09/25 02:16:49;;;;;;;12.85;11.55;;;15.70;48.00;;;;;;5034642;28;20314;-43
2022/09/25 02:22:17;;;;;;;12.15;10.98;;;15.80;48.10;;;;;;5039230;28;20581;-43
2022/09/25 02:24:52;;;;;;;13.02;10.27;;;15.80;48.00;;;;;;5038278;28;20158;-44
2022/09/25 02:27:20;;;;;;;13.50;12.13;;;15.80;47.90;;;;;;5038006;28;20182;-43
2022/09/25 02:29:46;;;;;;;12.05;10.85;;;15.80;48.00;;;;;;5038759;28;20177;-44
2022/09/25 02:32:15;;;;;;;14.50;11.80;;;15.80;48.20;;;;;;5038114;28;20189;-44
2022/09/25 02:34:41;;;;;;;14.57;12.70;;;15.90;48.30;;;;;;5037775;28;20409;-43
2022/09/25 02:37:15;;;;;;;13.73;11.73;;;15.80;48.10;;;;;;5037286;28;20236;-43
2022/09/25 02:39:46;;;;;;;13.35;11.23;;;15.90;48.30;;;;;;5037999;28;20159;-44
2022/09/25 02:42:24;;;;;;;12.00;10.80;;;15.90;48.40;;;;;;5038125;28;20162;-44
2022/09/25 02:45:11;;;;;;;12.77;11.30;;;15.90;48.30;;;;;;5038511;28;20216;-43
2022/09/25 02:48:07;;;;;;;13.65;11.70;;;16.00;48.20;;;;;;5036903;28;20198;-43
2022/09/25 02:51:04;;;;;;;11.18;10.00;;;15.90;48.30;;;;;;5037843;28;20624;-43
2022/09/25 02:54:07;;;;;;;11.95;10.75;;;15.90;48.30;;;;;;5038242;28;20185;-44
2022/09/25 02:57:27;;;;;;;17.35;9.68;;;15.90;48.30;;;;;;5037074;28;20254;-43
2022/09/25 02:59:58;;;;;;;11.48;10.27;;;15.90;48.40;;;;;;4976842;28;20176;-44
2022/09/25 03:02:27;;;;;;;13.77;9.90;;;15.90;48.50;;;;;;5026493;28;20667;-43
2022/09/25 03:04:56;;;;;;;11.73;10.13;;;15.90;48.60;;;;;;5037506;28;20181;-44
2022/09/25 03:07:23;;;;;;;11.57;10.38;;;15.90;48.60;;;;;;5037140;28;20225;-43
2022/09/25 03:09:52;;;;;;;13.45;11.25;;;15.90;48.60;;;;;;5038040;28;20264;-43
2022/09/25 03:12:18;;;;;;;10.40;9.35;;;15.90;48.50;;;;;;5038411;28;20264;-44
2022/09/25 03:14:44;;;;;;;12.03;9.33;;;15.90;48.60;;;;;;5037952;28;20733;-44
2022/09/25 03:17:11;;;;;;;12.27;10.10;;;15.90;48.50;;;;;;5036896;28;20464;-43
2022/09/25 03:19:37;;;;;;;11.55;10.30;;;16.00;48.40;;;;;;5037045;28;20170;-44
2022/09/25 03:22:03;;;;;;;14.70;10.93;;;16.00;48.40;;;;;;5037574;28;20244;-43
2022/09/25 03:24:30;;;;;;;12.98;11.07;;;16.00;48.40;;;;;;5036082;28;20403;-43
2022/09/25 03:26:56;;;;;;;12.80;10.00;;;16.00;48.40;;;;;;5036434;28;20197;-44
2022/09/25 03:29:22;;;;;;;12.63;11.30;;;16.00;48.40;;;;;;5037183;28;20166;-44
2022/09/25 03:31:48;;;;;;;14.55;11.40;;;16.00;48.40;;;;;;5036988;28;20417;-44
2022/09/25 03:34:16;;;;;;;13.57;10.73;;;16.00;49.10;;;;;;5037257;28;20657;-43
2022/09/25 03:36:46;;;;;;;13.73;10.15;;;16.00;48.30;;;;;;5036217;28;20457;-43
2022/09/25 03:39:14;;;;;;;11.48;10.35;;;16.00;48.30;;;;;;5037079;28;20174;-43
2022/09/25 03:41:40;;;;;;;10.65;9.65;;;16.00;48.30;;;;;;5036839;28;20188;-43
2022/09/25 03:44:06;;;;;;;12.13;9.63;;;16.00;48.30;;;;;;5037268;28;20206;-43
2022/09/25 03:46:33;;;;;;;9.20;8.30;;;16.00;48.20;;;;;;5036021;28;20220;-43
2022/09/25 03:49:00;;;;;;;8.77;7.95;;;16.00;48.10;;;;;;5036891;28;20174;-44
2022/09/25 03:51:27;;;;;;;10.73;9.18;;;16.00;48.00;;;;;;5036414;28;20260;-43
2022/09/25 03:53:54;;;;;;;10.00;8.88;;;16.00;48.30;;;;;;5036952;28;20236;-43
2022/09/25 03:56:22;;;;;;;12.25;10.00;;;16.00;48.40;;;;;;5035837;28;20255;-43
2022/09/25 03:58:50;;;;;;;12.07;9.40;;;16.00;48.40;;;;;;5036234;28;20522;-43
2022/09/25 04:01:18;;;;;;;12.98;10.45;;;16.00;48.50;;;;;;5036297;28;20166;-44
2022/09/25 04:03:46;;;;;;;10.38;9.38;;;16.00;48.50;;;;;;5035814;28;20649;-43
2022/09/25 04:06:13;;;;;;;10.10;9.10;;;16.00;48.40;;;;;;5035439;28;20205;-43
2022/09/25 04:08:41;;;;;;;12.30;9.88;;;16.00;48.40;;;;;;5035884;28;20191;-44
2022/09/25 04:11:06;;;;;;;9.40;8.50;;;16.00;48.50;;;;;;5035564;28;20174;-43
2022/09/25 04:13:40;;;;;;;11.67;9.90;;;16.00;48.40;;;;;;5035794;28;20328;-44
2022/09/25 04:16:07;;;;;;;11.75;10.50;;;16.00;48.50;;;;;;5034765;28;20213;-44
2022/09/25 04:18:32;;;;;;;11.80;8.85;;;16.00;48.50;;;;;;5035273;28;20570;-43
2022/09/25 04:21:06;;;;;;;11.10;10.00;;;16.00;48.40;;;;;;5035351;28;20212;-43
2022/09/25 04:23:32;;;;;;;11.82;8.63;;;16.00;48.40;;;;;;5036383;28;20415;-44
2022/09/25 04:25:57;;;;;;;10.60;8.40;;;16.00;48.40;;;;;;5036037;28;20284;-44
2022/09/25 04:28:24;;;;;;;9.63;8.63;;;16.00;48.40;;;;;;5035864;28;20169;-43
2022/09/25 04:30:50;;;;;;;11.68;10.18;;;16.00;48.40;;;;;;5035698;28;20409;-44
2022/09/25 04:36:02;;;;;;;10.32;9.30;;;16.00;48.60;;;;;;5035183;28;20267;-44
2022/09/25 04:38:31;;;;;;;12.00;9.77;;;16.00;48.50;;;;;;5035764;28;20634;-43
2022/09/25 04:40:59;;;;;;;10.43;9.40;;;15.90;48.60;;;;;;5035237;28;20174;-43
2022/09/25 04:43:28;;;;;;;11.32;9.65;;;16.00;48.60;;;;;;5035057;28;20541;-44
2022/09/25 04:45:53;;;;;;;12.15;10.55;;;16.00;48.70;;;;;;5034705;28;20209;-44
2022/09/25 04:48:19;;;;;;;11.00;9.90;;;15.90;48.80;;;;;;5035662;28;20182;-44
2022/09/25 04:50:49;;;;;;;9.57;8.67;;;15.90;48.90;;;;;;5035837;28;20282;-44
2022/09/25 04:53:15;;;;;;;10.50;9.40;;;15.90;48.90;;;;;;5035405;28;20272;-43
2022/09/25 04:55:41;;;;;;;10.67;8.70;;;15.90;48.90;;;;;;5034732;28;20229;-43
2022/09/25 04:58:09;;;;;;;16.03;8.87;;;15.90;49.00;;;;;;5035127;28;20405;-44
2022/09/25 05:00:36;;;;;;;10.10;9.10;;;15.90;49.00;;;;;;5034722;28;20657;-43
2022/09/25 05:03:03;;;;;;;9.55;8.60;;;16.00;48.90;;;;;;5034417;28;20231;-42
2022/09/25 05:05:30;;;;;;;12.90;8.90;;;16.00;48.90;;;;;;5034945;28;20170;-44
2022/09/25 05:08:00;;;;;;;12.00;10.50;;;16.00;48.90;;;;;;5034342;28;20224;-43
2022/09/25 05:10:31;;;;;;;10.45;9.45;;;16.00;48.90;;;;;;5034638;28;20297;-43
2022/09/25 05:12:59;;;;;;;15.38;11.10;;;16.00;49.00;;;;;;5034464;28;20217;-44
2022/09/25 05:15:27;;;;;;;10.23;9.07;;;16.00;49.00;;;;;;5034072;28;20193;-44
2022/09/25 05:17:59;;;;;;;11.65;10.05;;;16.00;49.00;;;;;;5033923;28;20189;-42
2022/09/25 05:20:25;;;;;;;11.00;9.65;;;16.00;49.00;;;;;;5034669;28;20170;-43
2022/09/25 05:22:58;;;;;;;12.80;10.60;;;16.00;49.00;;;;;;5034429;28;20182;-43
2022/09/25 05:25:25;;;;;;;10.40;9.35;;;16.00;49.10;;;;;;5034928;28;20182;-44
2022/09/25 05:27:57;;;;;;;12.82;8.63;;;16.00;49.30;;;;;;5033729;28;20182;-44
2022/09/25 05:30:23;;;;;;;11.30;10.20;;;16.00;49.30;;;;;;5034394;28;20166;-43
2022/09/25 05:32:50;;;;;;;10.15;8.90;;;16.00;49.30;;;;;;5034035;28;20174;-43
2022/09/25 05:35:18;;;;;;;10.55;9.55;;;16.10;49.30;;;;;;5034297;28;20201;-44
2022/09/25 05:37:43;;;;;;;9.52;8.52;;;16.10;49.30;;;;;;5033258;28;20166;-43
2022/09/25 05:40:09;;;;;;;10.60;9.50;;;16.10;49.30;;;;;;5033888;28;20538;-44
2022/09/25 05:42:35;;;;;;;10.48;9.48;;;16.10;49.30;;;;;;5034368;28;20189;-43
2022/09/25 05:45:01;;;;;;;16.23;10.67;;;16.10;49.30;;;;;;5033655;28;20178;-43
2022/09/25 05:47:27;;;;;;;10.20;9.10;;;16.10;49.30;;;;;;5032640;28;20193;-44
2022/09/25 05:49:52;;;;;;;11.07;9.93;;;16.10;49.20;;;;;;5033527;28;20166;-44
2022/09/25 05:52:18;;;;;;;10.70;9.53;;;16.10;49.20;;;;;;5034016;28;20981;-43
2022/09/25 05:54:45;;;;;;;12.63;9.33;;;16.20;49.30;;;;;;5034127;28;20174;-44
2022/09/25 05:57:11;;;;;;;9.63;8.45;;;16.20;49.40;;;;;;5033273;28;20574;-43
2022/09/25 05:59:37;;;;;;;11.67;9.00;;;16.30;49.50;;;;;;5034159;28;20174;-43
2022/09/25 06:02:03;;;;;;;12.30;11.10;;;16.20;49.40;;;;;;5032800;28;20174;-43
2022/09/25 06:04:29;;;;;;;10.07;9.17;;;16.30;49.60;;;;;;5033966;28;20450;-43
2022/09/25 06:06:55;;;;;;;11.48;9.98;;;16.30;49.50;;;;;;5033410;28;20432;-43
2022/09/25 06:09:20;;;;;;;11.83;10.60;;;16.30;49.50;;;;;;5034080;28;20835;-44
2022/09/25 06:11:46;;;;;;;10.10;9.07;;;16.30;49.00;;;;;;5033818;28;20174;-44
2022/09/25 06:14:15;;;;;;;12.03;10.83;;;16.30;49.50;;;;;;5033773;28;20212;-43
2022/09/25 06:16:41;;;;;;;12.20;10.93;;;16.40;49.60;;;;;;5034246;28;20215;-44
2022/09/25 06:19:07;;;;;;;13.53;11.50;;;16.40;49.60;;;;;;5034999;28;20174;-43
2022/09/25 06:21:33;;;;;;;14.23;12.82;;;16.50;49.60;;;;;;5035040;28;20405;-44
2022/09/25 06:23:59;;;;;;;13.35;11.73;;;16.50;49.50;;;;;;5035397;28;20175;-43
2022/09/25 06:26:25;;;;;;;12.15;10.45;;;16.50;49.40;;;;;;5034150;28;20196;-43
2022/09/25 06:28:51;;;;;;;9.80;8.90;;;16.60;49.40;;;;;;5034644;28;20182;-43
2022/09/25 06:31:17;;;;;;;12.43;10.83;;;16.60;49.30;;;;;;5033794;28;20174;-44
2022/09/25 06:33:44;;;;;;;10.23;9.00;;;16.70;49.30;;;;;;5033189;28;20170;-44
2022/09/25 06:36:10;;;;;;;9.45;8.18;;;16.70;49.20;;;;;;5032756;28;20633;-44
2022/09/25 06:38:36;;;;;;;9.17;8.20;;;16.70;49.20;;;;;;5033222;28;20217;-44
2022/09/25 06:41:02;;;;;;;9.73;8.73;;;16.80;49.20;;;;;;5033155;28;20197;-43
2022/09/25 06:43:28;;;;;;;11.33;8.63;;;16.80;49.00;;;;;;5033066;28;20563;-43
2022/09/25 06:45:53;;;;;;;10.67;9.57;;;16.90;49.00;;;;;;5032371;28;20259;-44
2022/09/25 06:48:20;;;;;;;10.50;8.70;;;16.90;49.00;;;;;;5032753;28;21121;-44
2022/09/25 06:50:48;;;;;;;10.55;8.80;;;16.90;49.00;;;;;;5032937;28;20703;-43
2022/09/25 06:53:15;;;;;;;11.25;9.10;;;17.00;48.90;;;;;;5032900;28;20331;-44
2022/09/25 06:55:44;;;;;;;10.23;8.77;;;17.00;48.80;;;;;;5032053;28;20197;-44
2022/09/25 06:58:13;;;;;;;9.65;8.65;;;17.00;48.80;;;;;;5033807;28;20224;-43
2022/09/25 07:00:39;;;;;;;10.93;9.65;;;17.00;48.80;;;;;;5036266;28;20483;-43
2022/09/25 07:05:49;;;;;;;10.55;8.93;;;17.00;48.90;;;;;;5035906;28;20236;-43
2022/09/25 07:08:17;;;;;;;12.23;11.20;;;17.00;48.90;;;;;;5035818;28;20174;-44
2022/09/25 07:10:50;;;;;;;14.05;11.45;;;17.10;48.90;;;;;;5036442;28;20185;-43
2022/09/25 07:13:18;;;;;;;11.55;10.43;;;17.10;48.90;;;;;;5036177;28;20181;-43
2022/09/25 07:16:00;;;;;;;14.38;11.93;;;17.10;48.90;;;;;;5035302;28;20251;-43
2022/09/25 07:18:28;;;;;;;14.93;12.15;;;17.10;48.90;;;;;;5036262;28;20173;-43
2022/09/25 07:21:00;;;;;;;11.48;10.25;;;17.10;48.90;;;;;;5036147;28;20170;-44
2022/09/25 07:23:27;;;;;;;12.88;11.57;;;17.20;48.90;;;;;;5036191;28;20653;-44
2022/09/25 07:25:53;;;;;;;13.05;11.63;;;17.10;48.90;;;;;;5035277;28;20209;-42
2022/09/25 07:28:19;;;;;;;11.80;9.57;;;17.10;48.90;;;;;;5036023;28;20178;-44
2022/09/25 07:30:47;;;;;;;12.20;10.20;;;17.20;48.90;;;;;;5036124;28;20176;-43
2022/09/25 07:33:13;;;;;;;11.90;9.80;;;17.20;48.80;;;;;;5035848;28;20678;-43
2022/09/25 07:35:38;;;;;;;13.73;10.27;;;17.20;48.80;;;;;;5035334;28;20213;-44
2022/09/25 07:38:04;;;;;;;11.80;10.60;;;17.30;48.90;;;;;;5035891;28;20542;-44
2022/09/25 07:40:32;;;;;;;10.47;9.50;;;17.40;48.90;;;;;;5035737;28;20668;-44
2022/09/25 07:42:59;;;;;;;12.93;11.40;;;17.60;48.90;;;;;;5036016;28;20404;-44
2022/09/25 07:45:25;;;;;;;13.20;11.80;;;17.70;48.90;;;;;;5035096;28;20720;-44
2022/09/25 07:48:02;;;;;;;13.38;12.07;;;17.80;48.70;;;;;;5034661;28;20197;-43
2022/09/25 07:50:29;;;;;;;12.27;11.07;;;17.80;47.40;;;;;;5035021;28;20178;-43
2022/09/25 07:52:55;;;;;;;10.98;9.60;;;17.80;47.00;;;;;;5034918;28;20216;-43
2022/09/25 07:55:22;;;;;;;11.52;10.43;;;17.90;47.40;;;;;;5034947;28;20650;-44
2022/09/25 07:57:49;;;;;;;11.95;10.70;;;18.00;47.40;;;;;;5034206;28;20542;-44
2022/09/25 08:00:15;;;;;;;11.02;9.40;;;18.10;47.20;;;;;;5034734;28;20666;-44
2022/09/25 08:02:41;;;;;;;12.15;10.30;;;18.20;46.70;;;;;;5033336;28;20178;-44
2022/09/25 08:05:08;;;;;;;16.23;10.70;;;18.20;45.60;;;;;;5034610;28;20843;-44
2022/09/25 08:07:34;;;;;;;10.07;9.13;;;18.20;46.30;;;;;;5034057;28;20510;-44
2022/09/25 08:10:00;;;;;;;9.73;8.83;;;18.40;46.30;;;;;;5033660;28;20213;-44
2022/09/25 08:12:26;;;;;;;11.90;10.70;;;18.30;45.00;;;;;;5034510;28;20413;-44
2022/09/25 08:14:53;;;;;;;11.23;10.20;;;18.40;45.50;;;;;;5034673;28;20185;-43
2022/09/25 08:17:19;;;;;;;10.27;9.27;;;18.50;45.80;;;;;;5033411;28;20468;-44
2022/09/25 08:19:48;;;;;;;11.45;9.93;;;18.70;46.20;;;;;;5034220;28;20261;-44
2022/09/25 08:22:14;;;;;;;10.70;9.60;;;18.80;45.40;;;;;;5034342;28;20174;-43
2022/09/25 08:24:40;;;;;;;10.30;8.60;;;18.80;45.40;;;;;;5034299;28;20197;-44
2022/09/25 08:27:06;;;;;;;10.17;9.10;;;18.90;45.40;;;;;;5033230;28;20665;-44
2022/09/25 08:29:32;;;;;;;11.65;9.90;;;19.00;45.60;;;;;;5033963;28;20176;-44
2022/09/25 08:31:58;;;;;;;12.63;10.00;;;19.00;45.60;;;;;;5034129;28;20275;-44
2022/09/25 08:34:24;;;;;;;11.60;10.50;;;19.10;44.90;;;;;;5034530;28;20197;-43
2022/09/25 08:36:50;;;;;;;14.60;10.60;;;19.10;43.90;;;;;;5033486;28;20463;-44
2022/09/25 08:39:17;;;;;;;12.47;11.27;;;19.10;44.70;;;;;;5034410;28;20405;-45
2022/09/25 08:41:48;;;;;;;14.82;13.43;;;19.20;45.20;;;;;;5034705;28;20908;-45
2022/09/25 08:44:29;;;;;;;13.25;11.38;;;19.40;45.50;;;;;;5034960;28;20177;-43
2022/09/25 08:50:13;;;;;;;12.55;11.32;;;19.70;44.70;;;;;;5034944;28;20573;-45
2022/09/25 08:52:41;;;;;;;12.25;10.95;;;19.90;43.90;;;;;;5034736;28;20166;-44
2022/09/25 08:58:42;;;;;;;12.07;10.65;;;20.00;43.70;;;;;;4992969;28;20186;-45
2022/09/25 09:01:17;;;;;;;12.57;11.07;;;20.10;43.40;;;;;;5028087;28;20174;-45
2022/09/25 09:03:50;;;;;;;12.18;11.00;;;20.00;41.60;;;;;;5035136;28;20288;-45
2022/09/25 09:06:17;;;;;;;19.92;12.88;;;19.90;41.80;;;;;;5034087;28;20225;-44
2022/09/25 09:08:48;;;;;;;13.63;12.15;;;19.90;41.40;;;;;;5034891;28;20166;-45
2022/09/25 09:11:22;;;;;;;11.55;10.35;;;19.90;42.60;;;;;;5035112;28;20610;-45
2022/09/25 09:14:01;;;;;;;11.45;10.45;;;20.10;42.70;;;;;;5033359;28;20519;-45
2022/09/25 09:16:34;;;;;;;10.63;9.45;;;20.20;42.10;;;;;;5033706;28;20233;-45
2022/09/25 09:19:04;;;;;;;11.75;10.50;;;20.40;43.10;;;;;;5035049;28;20151;-45
2022/09/25 09:21:56;;;;;;;10.77;9.68;;;20.60;43.20;;;;;;5033736;28;20553;-43
2022/09/25 09:24:38;;;;;;;12.93;11.52;;;20.80;43.30;;;;;;5034613;28;20201;-44
2022/09/25 09:27:35;;;;;;;12.40;11.20;;;20.90;41.10;;;;;;5046534;22;20696;-44
2022/09/25 09:30:22;;;;;;;11.55;9.95;;;20.90;41.50;;;;;;5020710;28;20167;-45
2022/09/25 09:33:16;;;;;;;15.35;11.18;;;21.00;40.70;;;;;;5012650;28;20162;-45
2022/09/25 09:35:48;;;;;;;12.55;11.35;;;21.00;40.30;;;;;;5012034;28;20457;-45
2022/09/25 09:38:30;;;;;;;12.70;10.40;;;21.10;41.50;;;;;;5012815;28;20554;-45
2022/09/25 09:41:28;;;;;;;13.43;11.68;;;21.20;40.10;;;;;;5012512;28;20173;-45
2022/09/25 09:44:21;;;;;;;13.07;11.68;;;21.40;41.00;;;;;;4996779;28;20191;-46
2022/09/25 09:47:12;;;;;;;12.18;10.95;;;21.60;41.70;;;;;;5011860;28;20233;-45
2022/09/25 09:49:43;;;;;;;12.95;11.65;;;21.60;39.80;;;;;;5012419;28;20170;-45
2022/09/25 09:52:22;;;;;;;11.95;9.43;;;21.60;39.10;;;;;;5012335;28;20634;-44
2022/09/25 09:55:18;;;;;;;11.82;10.57;;;21.60;39.00;;;;;;5012411;28;20261;-46
2022/09/25 09:57:52;;;;;;;13.55;12.15;;;21.80;38.50;;;;;;5011720;28;20202;-45
2022/09/25 10:00:20;;;;;;;11.55;10.45;;;21.90;40.20;;;;;;5012407;28;20171;-44
2022/09/25 10:02:50;;;;;;;12.30;11.10;;;22.10;39.60;;;;;;5012319;28;20174;-45
2022/09/25 10:05:50;;;;;;;12.55;11.45;;;22.20;38.90;;;;;;5012229;28;20397;-45
2022/09/25 10:08:16;;;;;;;12.23;9.73;;;22.40;39.50;;;;;;5011811;28;20809;-45
2022/09/25 10:10:46;;;;;;;10.93;9.80;;;22.50;39.80;;;;;;5012163;28;20174;-44
2022/09/25 10:13:32;;;;;;;14.05;11.48;;;22.70;39.80;;;;;;5012191;28;20415;-45
2022/09/25 10:16:10;;;;;;;10.97;9.87;;;22.80;38.40;;;;;;5011534;28;20198;-45
2022/09/25 10:18:59;;;;;;;13.10;10.53;;;22.80;37.50;;;;;;5012205;28;20409;-45
2022/09/25 10:21:30;;;;;;;11.33;10.33;;;22.80;36.50;;;;;;5012124;28;20402;-44
2022/09/25 10:23:58;;;;;;;10.60;9.60;;;22.80;37.00;;;;;;5012085;28;20389;-43
2022/09/25 10:26:37;;;;;;;9.10;8.00;;;22.90;38.10;;;;;;5011238;28;20453;-44
2022/09/25 10:29:09;;;;;;;9.53;8.63;;;23.10;38.00;;;;;;5012068;28;20394;-45
2022/09/25 10:31:39;;;;;;;10.37;9.37;;;23.20;37.80;;;;;;5011948;28;20409;-46
2022/09/25 10:34:12;;;;;;;7.93;7.23;;;23.30;32.40;;;;;;5014596;28;20409;-44
2022/09/25 10:36:44;;;;;;;7.00;6.30;;;23.30;36.30;;;;;;5015125;28;20449;-45
2022/09/25 10:39:38;;;;;;;6.63;6.00;;;23.40;36.20;;;;;;5015651;28;20871;-45
2022/09/25 10:42:25;;;;;;;5.10;4.60;;;23.40;36.00;;;;;;5015585;28;20398;-44
2022/09/25 10:44:55;;;;;;;5.47;4.93;;;23.50;35.40;;;;;;5015589;28;20820;-44
2022/09/25 10:50:16;;;;;;;7.20;5.60;;;23.70;33.10;;;;;;5015576;28;20482;-44
2022/09/25 10:52:48;;;;;;;6.77;6.17;;;23.70;33.60;;;;;;5015429;28;20904;-44
2022/09/25 10:55:29;;;;;;;5.50;5.00;;;23.60;29.70;;;;;;5015404;28;20412;-44
2022/09/25 10:57:59;;;;;;;5.60;4.10;;;23.50;29.40;;;;;;5015082;28;20435;-45
2022/09/25 11:00:26;;;;;;;7.83;4.67;;;23.50;30.80;;;;;;5015351;28;20393;-45
2022/09/25 11:02:58;;;;;;;6.93;5.03;;;23.50;32.00;;;;;;5015381;28;20878;-44
2022/09/25 11:05:52;;;;;;;5.70;4.70;;;23.70;30.20;;;;;;5015580;28;20417;-44
2022/09/25 11:08:40;;;;;;;5.67;5.17;;;23.70;30.90;;;;;;5015373;28;20389;-45
2022/09/25 11:11:08;;;;;;;5.27;4.77;;;23.90;31.10;;;;;;5014701;28;20882;-44
2022/09/25 11:13:48;;;;;;;6.50;5.40;;;23.90;30.70;;;;;;5015361;28;20460;-43
2022/09/25 11:16:15;;;;;;;5.73;5.23;;;24.00;30.10;;;;;;5014377;28;20452;-45
2022/09/25 11:18:50;;;;;;;5.90;5.37;;;23.90;30.40;;;;;;5014985;28;20852;-45
2022/09/25 11:21:36;;;;;;;6.90;5.73;;;24.00;30.40;;;;;;5015293;28;20406;-45
2022/09/25 11:24:41;;;;;;;6.37;5.63;;;24.10;29.70;;;;;;5014991;28;20381;-44
2022/09/25 11:27:42;;;;;;;6.00;5.50;;;24.10;29.00;;;;;;4992770;28;20491;-45
2022/09/25 11:30:19;;;;;;;5.30;4.80;;;24.20;30.50;;;;;;5014887;28;20760;-44
2022/09/25 11:33:03;;;;;;;7.67;5.90;;;24.40;31.40;;;;;;5014746;28;20425;-45
2022/09/25 11:35:38;;;;;;;6.60;6.00;;;24.50;29.80;;;;;;5014820;28;20754;-44
2022/09/25 11:38:15;;;;;;;6.53;5.93;;;24.50;29.60;;;;;;5014621;28;20429;-45
2022/09/25 11:41:13;;;;;;;6.57;6.00;;;24.60;30.80;;;;;;5014666;28;20892;-45
2022/09/25 11:43:56;;;;;;;9.57;7.30;;;24.70;30.30;;;;;;5014793;28;20877;-44
2022/09/25 11:46:41;;;;;;;6.87;6.27;;;24.80;31.10;;;;;;5013273;28;20426;-45
2022/09/25 11:49:26;;;;;;;6.23;5.63;;;24.80;28.10;;;;;;5014508;28;20425;-44
2022/09/25 11:52:22;;;;;;;7.50;6.70;;;24.90;30.10;;;;;;5014364;28;20389;-45
2022/09/25 11:55:06;;;;;;;6.27;5.70;;;25.00;31.60;;;;;;5014458;28;20405;-45
2022/09/25 11:57:54;;;;;;;9.33;8.13;;;25.20;31.00;;;;;;5013669;28;20457;-44
2022/09/25 12:00:27;;;;;;;9.67;8.67;;;25.40;32.70;;;;;;5014078;28;20402;-45
2022/09/25 12:03:08;;;;;;;8.50;7.57;;;25.50;33.10;;;;;;5014147;28;20390;-44
2022/09/25 12:05:55;;;;;;;8.23;7.53;;;25.70;32.90;;;;;;5013631;28;20498;-44
2022/09/25 12:08:47;;;;;;;8.97;8.17;;;25.80;32.90;;;;;;5013804;28;20488;-45
2022/09/25 12:11:26;;;;;;;8.60;7.33;;;25.90;32.00;;;;;;5014101;28;20394;-45
2022/09/25 12:14:02;;;;;;;7.70;7.00;;;25.90;32.20;;;;;;5013997;28;20389;-46
2022/09/25 12:16:33;;;;;;;8.43;7.63;;;26.00;33.10;;;;;;5013468;28;20460;-45
2022/09/25 12:19:12;;;;;;;7.77;7.07;;;26.00;33.10;;;;;;5013787;28;20540;-45
2022/09/25 12:21:51;;;;;;;8.43;7.63;;;25.80;32.70;;;;;;5014076;28;20420;-44
2022/09/25 12:24:30;;;;;;;8.20;7.47;;;25.70;32.90;;;;;;5013810;28;20393;-45
2022/09/25 12:27:21;;;;;;;6.90;6.20;;;25.50;32.80;;;;;;5013206;28;20451;-45
2022/09/25 12:29:56;;;;;;;7.50;6.80;;;25.40;32.90;;;;;;5013786;28;20384;-44
2022/09/25 12:32:41;;;;;;;7.27;6.67;;;25.30;33.20;;;;;;5013784;28;20437;-44
2022/09/25 12:35:37;;;;;;;11.47;6.63;;;25.30;33.20;;;;;;5013630;28;20823;-45
2022/09/25 12:38:22;;;;;;;6.80;6.10;;;25.30;33.40;;;;;;5013751;28;20433;-45
2022/09/25 12:40:56;;;;;;;5.97;5.47;;;25.30;33.40;;;;;;5013673;28;20804;-44
2022/09/25 12:43:56;;;;;;;7.07;6.37;;;25.30;33.00;;;;;;5013479;28;20382;-44
2022/09/25 12:46:38;;;;;;;9.63;7.40;;;25.40;33.40;;;;;;5012805;28;20971;-45
2022/09/25 12:49:13;;;;;;;8.60;7.80;;;25.60;33.90;;;;;;5013283;28;20378;-44
2022/09/25 12:51:43;;;;;;;8.37;7.57;;;25.90;33.80;;;;;;5013223;28;20412;-45
2022/09/25 12:54:35;;;;;;;8.43;7.63;;;26.00;31.00;;;;;;5013474;28;20402;-45
2022/09/25 12:57:33;;;;;;;7.93;7.23;;;26.10;32.10;;;;;;5009178;28;20838;-45
2022/09/25 13:00:09;;;;;;;8.33;7.20;;;26.30;32.60;;;;;;5013136;28;20413;-44
2022/09/25 13:02:51;;;;;;;6.60;6.00;;;26.40;32.60;;;;;;5013399;28;20476;-44
2022/09/25 13:05:23;;;;;;;7.23;6.63;;;26.50;32.40;;;;;;5013051;28;20982;-44
2022/09/25 13:07:52;;;;;;;7.13;6.53;;;26.60;32.10;;;;;;5014334;28;20426;-43
2022/09/25 13:10:22;;;;;;;9.00;7.00;;;26.60;32.00;;;;;;5013973;28;20801;-44
2022/09/25 13:12:49;;;;;;;6.17;5.67;;;26.70;31.50;;;;;;5013197;28;20447;-44
2022/09/25 13:15:22;;;;;;;6.80;6.20;;;26.70;32.00;;;;;;5013007;28;20417;-44
2022/09/25 13:17:48;;;;;;;7.03;6.43;;;26.80;31.70;;;;;;5012315;28;20441;-44
2022/09/25 13:20:30;;;;;;;9.20;7.33;;;26.80;31.50;;;;;;5012729;28;20389;-44